TAF KMCC
KMCC 081725Z 0818/0918 VRB05KT 2SM BR OVC004 FM082000 VRB03KT 4SM BR OVC006 FM082200 16004KT 6SM BR OVC015 FM090800 16006KT 4SM -RA BR OVC010=
METAR KMCC
WC KMCC
WS KMCC
WV KMCC